sensor_id;sensor_type;location;lat;lon;timestamp;P1;durP1;ratioP1;P2;durP2;ratioP2
21754;SDS011;11039;50.028;19.938;2022-08-19T00:00:06;14.60;;;13.20;;
21754;SDS011;11039;50.028;19.938;2022-08-19T00:02:33;16.27;;;13.18;;
21754;SDS011;11039;50.028;19.938;2022-08-19T00:04:59;14.80;;;13.00;;
21754;SDS011;11039;50.028;19.938;2022-08-19T00:07:25;14.27;;;12.88;;
21754;SDS011;11039;50.028;19.938;2022-08-19T00:09:51;14.63;;;13.15;;
21754;SDS011;11039;50.028;19.938;2022-08-19T00:12:17;17.45;;;13.70;;
21754;SDS011;11039;50.028;19.938;2022-08-19T00:14:43;14.60;;;13.10;;
21754;SDS011;11039;50.028;19.938;2022-08-19T00:17:09;17.42;;;12.70;;
21754;SDS011;11039;50.028;19.938;2022-08-19T00:19:35;14.80;;;12.90;;
21754;SDS011;11039;50.028;19.938;2022-08-19T00:22:02;15.47;;;13.83;;
21754;SDS011;11039;50.028;19.938;2022-08-19T00:24:28;15.25;;;13.65;;
21754;SDS011;11039;50.028;19.938;2022-08-19T00:26:54;17.10;;;13.93;;
21754;SDS011;11039;50.028;19.938;2022-08-19T00:29:22;15.13;;;13.30;;
21754;SDS011;11039;50.028;19.938;2022-08-19T00:31:49;15.45;;;13.85;;
21754;SDS011;11039;50.028;19.938;2022-08-19T00:34:17;15.32;;;13.63;;
21754;SDS011;11039;50.028;19.938;2022-08-19T00:36:44;14.73;;;13.25;;
21754;SDS011;11039;50.028;19.938;2022-08-19T00:39:10;15.98;;;14.27;;
21754;SDS011;11039;50.028;19.938;2022-08-19T00:41:36;15.93;;;14.30;;
21754;SDS011;11039;50.028;19.938;2022-08-19T00:46:29;14.38;;;12.98;;
21754;SDS011;11039;50.028;19.938;2022-08-19T00:48:56;16.30;;;13.80;;
21754;SDS011;11039;50.028;19.938;2022-08-19T00:51:23;15.52;;;13.75;;
21754;SDS011;11039;50.028;19.938;2022-08-19T00:53:51;15.52;;;13.90;;
21754;SDS011;11039;50.028;19.938;2022-08-19T00:56:18;15.52;;;13.93;;
21754;SDS011;11039;50.028;19.938;2022-08-19T00:58:44;15.75;;;14.10;;
21754;SDS011;11039;50.028;19.938;2022-08-19T01:01:10;15.50;;;13.95;;
21754;SDS011;11039;50.028;19.938;2022-08-19T01:03:36;16.98;;;13.90;;
21754;SDS011;11039;50.028;19.938;2022-08-19T01:06:02;16.35;;;13.75;;
21754;SDS011;11039;50.028;19.938;2022-08-19T01:08:28;15.63;;;13.65;;
21754;SDS011;11039;50.028;19.938;2022-08-19T01:10:54;16.70;;;14.07;;
21754;SDS011;11039;50.028;19.938;2022-08-19T01:13:25;17.08;;;14.65;;
21754;SDS011;11039;50.028;19.938;2022-08-19T01:15:54;16.20;;;14.52;;
21754;SDS011;11039;50.028;19.938;2022-08-19T01:18:21;16.63;;;13.77;;
21754;SDS011;11039;50.028;19.938;2022-08-19T01:20:47;15.93;;;14.18;;
21754;SDS011;11039;50.028;19.938;2022-08-19T01:23:14;15.07;;;13.52;;
21754;SDS011;11039;50.028;19.938;2022-08-19T01:28:06;16.60;;;14.25;;
21754;SDS011;11039;50.028;19.938;2022-08-19T01:30:34;16.63;;;14.52;;
21754;SDS011;11039;50.028;19.938;2022-08-19T01:33:00;15.45;;;13.57;;
21754;SDS011;11039;50.028;19.938;2022-08-19T01:35:27;15.75;;;14.10;;
21754;SDS011;11039;50.028;19.938;2022-08-19T01:37:59;16.55;;;13.68;;
21754;SDS011;11039;50.028;19.938;2022-08-19T01:40:27;15.95;;;14.30;;
21754;SDS011;11039;50.028;19.938;2022-08-19T01:42:54;16.10;;;14.45;;
21754;SDS011;11039;50.028;19.938;2022-08-19T01:45:20;16.17;;;14.52;;
21754;SDS011;11039;50.028;19.938;2022-08-19T01:47:47;15.25;;;13.73;;
21754;SDS011;11039;50.028;19.938;2022-08-19T01:50:13;17.05;;;14.35;;
21754;SDS011;11039;50.028;19.938;2022-08-19T01:52:39;16.35;;;14.68;;
21754;SDS011;11039;50.028;19.938;2022-08-19T01:55:08;16.17;;;14.27;;
21754;SDS011;11039;50.028;19.938;2022-08-19T01:57:34;16.75;;;14.98;;
21754;SDS011;11039;50.028;19.938;2022-08-19T02:00:00;15.85;;;14.27;;
21754;SDS011;11039;50.028;19.938;2022-08-19T02:02:29;15.52;;;14.02;;
21754;SDS011;11039;50.028;19.938;2022-08-19T02:04:56;15.93;;;14.25;;
21754;SDS011;11039;50.028;19.938;2022-08-19T02:07:22;17.20;;;14.07;;
21754;SDS011;11039;50.028;19.938;2022-08-19T02:09:49;16.80;;;14.80;;
21754;SDS011;11039;50.028;19.938;2022-08-19T02:12:15;15.43;;;13.80;;
21754;SDS011;11039;50.028;19.938;2022-08-19T02:14:41;14.32;;;12.93;;
21754;SDS011;11039;50.028;19.938;2022-08-19T02:17:07;16.45;;;14.38;;
21754;SDS011;11039;50.028;19.938;2022-08-19T02:19:33;15.63;;;14.02;;
21754;SDS011;11039;50.028;19.938;2022-08-19T02:21:59;17.90;;;14.55;;
21754;SDS011;11039;50.028;19.938;2022-08-19T02:24:26;16.60;;;14.38;;
21754;SDS011;11039;50.028;19.938;2022-08-19T02:26:52;16.17;;;14.48;;
21754;SDS011;11039;50.028;19.938;2022-08-19T02:29:19;18.02;;;14.90;;
21754;SDS011;11039;50.028;19.938;2022-08-19T02:31:45;16.73;;;15.02;;
21754;SDS011;11039;50.028;19.938;2022-08-19T02:34:11;18.05;;;14.95;;
21754;SDS011;11039;50.028;19.938;2022-08-19T02:36:38;17.02;;;14.35;;
21754;SDS011;11039;50.028;19.938;2022-08-19T02:39:04;16.25;;;14.55;;
21754;SDS011;11039;50.028;19.938;2022-08-19T02:41:31;17.08;;;15.15;;
21754;SDS011;11039;50.028;19.938;2022-08-19T02:43:58;15.82;;;14.23;;
21754;SDS011;11039;50.028;19.938;2022-08-19T02:46:27;16.70;;;14.68;;
21754;SDS011;11039;50.028;19.938;2022-08-19T02:48:54;16.27;;;14.68;;
21754;SDS011;11039;50.028;19.938;2022-08-19T02:51:22;16.48;;;14.77;;
21754;SDS011;11039;50.028;19.938;2022-08-19T02:53:48;16.00;;;14.00;;
21754;SDS011;11039;50.028;19.938;2022-08-19T02:56:14;16.30;;;14.50;;
21754;SDS011;11039;50.028;19.938;2022-08-19T02:58:40;18.00;;;14.63;;
21754;SDS011;11039;50.028;19.938;2022-08-19T03:01:07;16.23;;;14.52;;
21754;SDS011;11039;50.028;19.938;2022-08-19T03:03:33;16.00;;;14.43;;
21754;SDS011;11039;50.028;19.938;2022-08-19T03:06:07;17.63;;;15.52;;
21754;SDS011;11039;50.028;19.938;2022-08-19T03:08:34;16.10;;;14.40;;
21754;SDS011;11039;50.028;19.938;2022-08-19T03:11:00;15.45;;;13.80;;
21754;SDS011;11039;50.028;19.938;2022-08-19T03:13:26;16.77;;;14.98;;
21754;SDS011;11039;50.028;19.938;2022-08-19T03:15:53;16.75;;;14.70;;
21754;SDS011;11039;50.028;19.938;2022-08-19T03:18:19;16.33;;;14.65;;
21754;SDS011;11039;50.028;19.938;2022-08-19T03:20:48;16.77;;;14.52;;
21754;SDS011;11039;50.028;19.938;2022-08-19T03:23:14;17.58;;;14.95;;
21754;SDS011;11039;50.028;19.938;2022-08-19T03:25:42;16.98;;;15.18;;
21754;SDS011;11039;50.028;19.938;2022-08-19T03:28:09;18.00;;;16.10;;
21754;SDS011;11039;50.028;19.938;2022-08-19T03:30:36;18.27;;;14.77;;
21754;SDS011;11039;50.028;19.938;2022-08-19T03:33:04;16.77;;;14.45;;
21754;SDS011;11039;50.028;19.938;2022-08-19T03:35:30;17.52;;;15.35;;
21754;SDS011;11039;50.028;19.938;2022-08-19T03:37:57;17.05;;;15.25;;
21754;SDS011;11039;50.028;19.938;2022-08-19T03:40:23;19.80;;;15.77;;
21754;SDS011;11039;50.028;19.938;2022-08-19T03:42:50;15.70;;;13.88;;
21754;SDS011;11039;50.028;19.938;2022-08-19T03:45:16;18.17;;;14.10;;
21754;SDS011;11039;50.028;19.938;2022-08-19T03:47:42;16.05;;;14.43;;
21754;SDS011;11039;50.028;19.938;2022-08-19T03:50:08;16.05;;;14.40;;
21754;SDS011;11039;50.028;19.938;2022-08-19T03:52:34;19.05;;;13.65;;
21754;SDS011;11039;50.028;19.938;2022-08-19T03:55:01;16.42;;;13.82;;
21754;SDS011;11039;50.028;19.938;2022-08-19T03:57:27;17.20;;;14.73;;
21754;SDS011;11039;50.028;19.938;2022-08-19T03:59:53;20.45;;;15.02;;
21754;SDS011;11039;50.028;19.938;2022-08-19T04:02:19;16.08;;;14.27;;
21754;SDS011;11039;50.028;19.938;2022-08-19T04:04:45;16.98;;;15.18;;
21754;SDS011;11039;50.028;19.938;2022-08-19T04:07:12;15.95;;;14.38;;
21754;SDS011;11039;50.028;19.938;2022-08-19T04:09:40;15.73;;;14.13;;
21754;SDS011;11039;50.028;19.938;2022-08-19T04:12:07;17.52;;;14.85;;
21754;SDS011;11039;50.028;19.938;2022-08-19T04:14:33;15.90;;;13.95;;
21754;SDS011;11039;50.028;19.938;2022-08-19T04:17:00;18.30;;;14.20;;
21754;SDS011;11039;50.028;19.938;2022-08-19T04:19:26;18.77;;;15.35;;
21754;SDS011;11039;50.028;19.938;2022-08-19T04:21:54;22.02;;;16.75;;
21754;SDS011;11039;50.028;19.938;2022-08-19T04:24:21;18.80;;;16.08;;
21754;SDS011;11039;50.028;19.938;2022-08-19T04:26:48;25.05;;;17.95;;
21754;SDS011;11039;50.028;19.938;2022-08-19T04:29:16;19.65;;;16.60;;
21754;SDS011;11039;50.028;19.938;2022-08-19T04:31:43;19.90;;;17.77;;
21754;SDS011;11039;50.028;19.938;2022-08-19T04:34:10;19.67;;;17.48;;
21754;SDS011;11039;50.028;19.938;2022-08-19T04:36:36;19.33;;;17.33;;
21754;SDS011;11039;50.028;19.938;2022-08-19T04:39:08;19.48;;;17.30;;
21754;SDS011;11039;50.028;19.938;2022-08-19T04:41:35;20.65;;;16.70;;
21754;SDS011;11039;50.028;19.938;2022-08-19T04:44:20;22.17;;;15.43;;
21754;SDS011;11039;50.028;19.938;2022-08-19T04:46:47;18.70;;;15.38;;
21754;SDS011;11039;50.028;19.938;2022-08-19T04:49:14;18.80;;;14.52;;
21754;SDS011;11039;50.028;19.938;2022-08-19T04:51:41;16.88;;;13.35;;
21754;SDS011;11039;50.028;19.938;2022-08-19T04:54:08;19.90;;;14.40;;
21754;SDS011;11039;50.028;19.938;2022-08-19T04:56:34;17.15;;;13.95;;
21754;SDS011;11039;50.028;19.938;2022-08-19T04:59:00;17.13;;;13.43;;
21754;SDS011;11039;50.028;19.938;2022-08-19T05:01:30;20.40;;;13.63;;
21754;SDS011;11039;50.028;19.938;2022-08-19T05:03:58;18.63;;;13.00;;
21754;SDS011;11039;50.028;19.938;2022-08-19T05:06:25;16.67;;;14.38;;
21754;SDS011;11039;50.028;19.938;2022-08-19T05:08:52;17.83;;;13.45;;
21754;SDS011;11039;50.028;19.938;2022-08-19T05:11:19;15.25;;;13.60;;
21754;SDS011;11039;50.028;19.938;2022-08-19T05:13:46;19.97;;;13.40;;
21754;SDS011;11039;50.028;19.938;2022-08-19T05:16:14;16.13;;;13.23;;
21754;SDS011;11039;50.028;19.938;2022-08-19T05:18:40;16.05;;;13.13;;
21754;SDS011;11039;50.028;19.938;2022-08-19T05:21:25;15.07;;;13.48;;
21754;SDS011;11039;50.028;19.938;2022-08-19T05:24:10;15.60;;;12.70;;
21754;SDS011;11039;50.028;19.938;2022-08-19T05:26:41;15.25;;;13.25;;
21754;SDS011;11039;50.028;19.938;2022-08-19T05:29:08;16.00;;;14.10;;
21754;SDS011;11039;50.028;19.938;2022-08-19T05:31:35;18.55;;;13.43;;
21754;SDS011;11039;50.028;19.938;2022-08-19T05:34:03;16.08;;;13.77;;
21754;SDS011;11039;50.028;19.938;2022-08-19T05:36:33;14.02;;;12.45;;
21754;SDS011;11039;50.028;19.938;2022-08-19T05:39:00;15.10;;;13.15;;
21754;SDS011;11039;50.028;19.938;2022-08-19T05:41:26;14.32;;;12.82;;
21754;SDS011;11039;50.028;19.938;2022-08-19T05:44:00;16.45;;;13.77;;
21754;SDS011;11039;50.028;19.938;2022-08-19T05:46:26;15.15;;;12.85;;
21754;SDS011;11039;50.028;19.938;2022-08-19T05:48:52;15.48;;;12.98;;
21754;SDS011;11039;50.028;19.938;2022-08-19T05:51:21;17.70;;;13.68;;
21754;SDS011;11039;50.028;19.938;2022-08-19T05:53:47;19.38;;;13.82;;
21754;SDS011;11039;50.028;19.938;2022-08-19T05:56:14;19.92;;;14.43;;
21754;SDS011;11039;50.028;19.938;2022-08-19T05:58:41;17.17;;;14.38;;
21754;SDS011;11039;50.028;19.938;2022-08-19T06:01:11;17.38;;;14.05;;
21754;SDS011;11039;50.028;19.938;2022-08-19T06:03:37;17.17;;;14.48;;
21754;SDS011;11039;50.028;19.938;2022-08-19T06:06:04;18.52;;;14.32;;
21754;SDS011;11039;50.028;19.938;2022-08-19T06:08:31;17.75;;;14.60;;
21754;SDS011;11039;50.028;19.938;2022-08-19T06:10:58;17.83;;;13.60;;
21754;SDS011;11039;50.028;19.938;2022-08-19T06:13:37;19.55;;;15.95;;
21754;SDS011;11039;50.028;19.938;2022-08-19T06:16:03;19.33;;;14.25;;
21754;SDS011;11039;50.028;19.938;2022-08-19T06:18:29;16.95;;;14.45;;
21754;SDS011;11039;50.028;19.938;2022-08-19T06:20:55;17.02;;;13.88;;
21754;SDS011;11039;50.028;19.938;2022-08-19T06:23:21;21.63;;;14.43;;
21754;SDS011;11039;50.028;19.938;2022-08-19T06:25:47;18.27;;;13.70;;
21754;SDS011;11039;50.028;19.938;2022-08-19T06:28:13;17.33;;;12.75;;
21754;SDS011;11039;50.028;19.938;2022-08-19T06:30:39;18.77;;;14.27;;
21754;SDS011;11039;50.028;19.938;2022-08-19T06:33:06;17.52;;;12.70;;
21754;SDS011;11039;50.028;19.938;2022-08-19T06:35:32;17.63;;;13.27;;
21754;SDS011;11039;50.028;19.938;2022-08-19T06:37:58;18.13;;;12.63;;
21754;SDS011;11039;50.028;19.938;2022-08-19T06:40:24;18.92;;;13.07;;
21754;SDS011;11039;50.028;19.938;2022-08-19T06:42:52;17.70;;;13.00;;
21754;SDS011;11039;50.028;19.938;2022-08-19T06:45:18;14.05;;;12.05;;
21754;SDS011;11039;50.028;19.938;2022-08-19T06:47:45;17.17;;;12.40;;
21754;SDS011;11039;50.028;19.938;2022-08-19T06:50:13;15.90;;;12.25;;
21754;SDS011;11039;50.028;19.938;2022-08-19T06:52:39;15.45;;;12.80;;
21754;SDS011;11039;50.028;19.938;2022-08-19T06:55:05;14.77;;;12.13;;
21754;SDS011;11039;50.028;19.938;2022-08-19T06:57:31;16.67;;;12.32;;
21754;SDS011;11039;50.028;19.938;2022-08-19T06:59:57;16.05;;;12.38;;
21754;SDS011;11039;50.028;19.938;2022-08-19T07:02:25;17.55;;;12.23;;
21754;SDS011;11039;50.028;19.938;2022-08-19T07:04:51;13.93;;;11.25;;
21754;SDS011;11039;50.028;19.938;2022-08-19T07:07:17;16.58;;;12.20;;
21754;SDS011;11039;50.028;19.938;2022-08-19T07:09:44;16.83;;;12.05;;
21754;SDS011;11039;50.028;19.938;2022-08-19T07:12:11;16.73;;;12.07;;
21754;SDS011;11039;50.028;19.938;2022-08-19T07:14:38;15.43;;;11.52;;
21754;SDS011;11039;50.028;19.938;2022-08-19T07:17:05;17.58;;;11.93;;
21754;SDS011;11039;50.028;19.938;2022-08-19T07:19:32;16.45;;;11.75;;
21754;SDS011;11039;50.028;19.938;2022-08-19T07:21:58;15.38;;;11.57;;
21754;SDS011;11039;50.028;19.938;2022-08-19T07:24:27;15.57;;;11.25;;
21754;SDS011;11039;50.028;19.938;2022-08-19T07:26:54;14.00;;;11.32;;
21754;SDS011;11039;50.028;19.938;2022-08-19T07:29:21;16.13;;;11.27;;
21754;SDS011;11039;50.028;19.938;2022-08-19T07:31:49;15.02;;;11.52;;
21754;SDS011;11039;50.028;19.938;2022-08-19T07:34:15;14.60;;;11.57;;
21754;SDS011;11039;50.028;19.938;2022-08-19T07:36:42;12.38;;;11.15;;
21754;SDS011;11039;50.028;19.938;2022-08-19T07:39:12;19.48;;;11.27;;
21754;SDS011;11039;50.028;19.938;2022-08-19T07:41:38;14.75;;;11.77;;
21754;SDS011;11039;50.028;19.938;2022-08-19T07:44:04;14.70;;;11.68;;
21754;SDS011;11039;50.028;19.938;2022-08-19T07:46:36;12.60;;;11.25;;
21754;SDS011;11039;50.028;19.938;2022-08-19T07:49:03;12.73;;;11.20;;
21754;SDS011;11039;50.028;19.938;2022-08-19T07:51:29;12.85;;;10.32;;
21754;SDS011;11039;50.028;19.938;2022-08-19T07:53:55;13.57;;;11.75;;
21754;SDS011;11039;50.028;19.938;2022-08-19T07:56:22;14.85;;;10.88;;
21754;SDS011;11039;50.028;19.938;2022-08-19T07:58:49;12.82;;;10.98;;
21754;SDS011;11039;50.028;19.938;2022-08-19T08:01:17;12.38;;;10.90;;
21754;SDS011;11039;50.028;19.938;2022-08-19T08:03:44;14.13;;;11.30;;
21754;SDS011;11039;50.028;19.938;2022-08-19T08:06:29;12.73;;;11.40;;
21754;SDS011;11039;50.028;19.938;2022-08-19T08:09:15;14.07;;;11.10;;
21754;SDS011;11039;50.028;19.938;2022-08-19T08:11:52;13.23;;;11.02;;
21754;SDS011;11039;50.028;19.938;2022-08-19T08:14:20;12.77;;;10.77;;
21754;SDS011;11039;50.028;19.938;2022-08-19T08:16:47;12.98;;;11.05;;
21754;SDS011;11039;50.028;19.938;2022-08-19T08:19:16;15.50;;;11.77;;
21754;SDS011;11039;50.028;19.938;2022-08-19T08:21:42;13.52;;;11.07;;
21754;SDS011;11039;50.028;19.938;2022-08-19T08:24:09;14.85;;;11.35;;
21754;SDS011;11039;50.028;19.938;2022-08-19T08:26:35;11.90;;;10.52;;
21754;SDS011;11039;50.028;19.938;2022-08-19T08:29:01;14.07;;;11.07;;
21754;SDS011;11039;50.028;19.938;2022-08-19T08:31:27;12.15;;;10.32;;
21754;SDS011;11039;50.028;19.938;2022-08-19T08:33:53;13.32;;;11.25;;
21754;SDS011;11039;50.028;19.938;2022-08-19T08:36:19;12.05;;;10.73;;
21754;SDS011;11039;50.028;19.938;2022-08-19T08:38:45;12.27;;;10.77;;
21754;SDS011;11039;50.028;19.938;2022-08-19T08:41:17;14.70;;;11.25;;
21754;SDS011;11039;50.028;19.938;2022-08-19T08:43:45;14.50;;;11.07;;
21754;SDS011;11039;50.028;19.938;2022-08-19T08:46:13;11.38;;;10.20;;
21754;SDS011;11039;50.028;19.938;2022-08-19T08:48:49;12.23;;;10.90;;
21754;SDS011;11039;50.028;19.938;2022-08-19T08:51:19;12.82;;;10.70;;
21754;SDS011;11039;50.028;19.938;2022-08-19T08:53:46;15.43;;;10.20;;
21754;SDS011;11039;50.028;19.938;2022-08-19T08:56:13;12.60;;;10.52;;
21754;SDS011;11039;50.028;19.938;2022-08-19T09:01:21;12.73;;;10.68;;
21754;SDS011;11039;50.028;19.938;2022-08-19T09:03:47;12.65;;;11.35;;
21754;SDS011;11039;50.028;19.938;2022-08-19T09:06:14;13.25;;;10.85;;
21754;SDS011;11039;50.028;19.938;2022-08-19T09:16:23;12.40;;;11.13;;
21754;SDS011;11039;50.028;19.938;2022-08-19T09:18:53;12.68;;;10.65;;
21754;SDS011;11039;50.028;19.938;2022-08-19T09:21:20;13.38;;;10.85;;
21754;SDS011;11039;50.028;19.938;2022-08-19T09:23:47;10.93;;;9.93;;
21754;SDS011;11039;50.028;19.938;2022-08-19T09:26:15;11.57;;;10.27;;
21754;SDS011;11039;50.028;19.938;2022-08-19T09:28:42;11.48;;;10.32;;
21754;SDS011;11039;50.028;19.938;2022-08-19T09:31:09;11.65;;;10.20;;
21754;SDS011;11039;50.028;19.938;2022-08-19T09:33:35;12.93;;;11.20;;
21754;SDS011;11039;50.028;19.938;2022-08-19T09:36:12;12.90;;;11.45;;
21754;SDS011;11039;50.028;19.938;2022-08-19T09:38:39;12.43;;;11.10;;
21754;SDS011;11039;50.028;19.938;2022-08-19T09:41:11;11.38;;;10.25;;
21754;SDS011;11039;50.028;19.938;2022-08-19T09:43:38;12.00;;;10.80;;
21754;SDS011;11039;50.028;19.938;2022-08-19T09:46:05;12.57;;;10.57;;
21754;SDS011;11039;50.028;19.938;2022-08-19T09:48:32;11.90;;;10.45;;
21754;SDS011;11039;50.028;19.938;2022-08-19T09:51:02;14.02;;;11.02;;
21754;SDS011;11039;50.028;19.938;2022-08-19T09:53:28;11.65;;;10.45;;
21754;SDS011;11039;50.028;19.938;2022-08-19T09:55:55;12.05;;;10.82;;
21754;SDS011;11039;50.028;19.938;2022-08-19T09:58:21;12.55;;;11.25;;
21754;SDS011;11039;50.028;19.938;2022-08-19T10:00:52;12.48;;;11.15;;
21754;SDS011;11039;50.028;19.938;2022-08-19T10:03:18;13.13;;;11.73;;
21754;SDS011;11039;50.028;19.938;2022-08-19T10:05:44;12.30;;;10.43;;
21754;SDS011;11039;50.028;19.938;2022-08-19T10:08:14;11.95;;;10.73;;
21754;SDS011;11039;50.028;19.938;2022-08-19T10:10:40;12.18;;;10.38;;
21754;SDS011;11039;50.028;19.938;2022-08-19T10:13:10;12.45;;;10.90;;
21754;SDS011;11039;50.028;19.938;2022-08-19T10:15:36;12.43;;;11.18;;
21754;SDS011;11039;50.028;19.938;2022-08-19T10:18:07;12.05;;;10.80;;
21754;SDS011;11039;50.028;19.938;2022-08-19T10:20:33;12.63;;;11.15;;
21754;SDS011;11039;50.028;19.938;2022-08-19T10:23:01;12.43;;;11.10;;
21754;SDS011;11039;50.028;19.938;2022-08-19T10:25:27;11.55;;;10.35;;
21754;SDS011;11039;50.028;19.938;2022-08-19T10:27:54;11.85;;;10.27;;
21754;SDS011;11039;50.028;19.938;2022-08-19T10:30:20;11.43;;;10.32;;
21754;SDS011;11039;50.028;19.938;2022-08-19T10:32:46;12.10;;;10.90;;
21754;SDS011;11039;50.028;19.938;2022-08-19T10:35:12;14.50;;;10.63;;
21754;SDS011;11039;50.028;19.938;2022-08-19T10:37:39;15.55;;;11.50;;
21754;SDS011;11039;50.028;19.938;2022-08-19T10:40:06;13.00;;;10.75;;
21754;SDS011;11039;50.028;19.938;2022-08-19T10:42:33;11.60;;;10.35;;
21754;SDS011;11039;50.028;19.938;2022-08-19T10:45:00;12.63;;;10.85;;
21754;SDS011;11039;50.028;19.938;2022-08-19T10:47:26;12.55;;;10.38;;
21754;SDS011;11039;50.028;19.938;2022-08-19T10:49:53;14.48;;;10.70;;
21754;SDS011;11039;50.028;19.938;2022-08-19T10:52:48;16.13;;;11.10;;
21754;SDS011;11039;50.028;19.938;2022-08-19T10:55:14;13.93;;;10.48;;
21754;SDS011;11039;50.028;19.938;2022-08-19T10:57:58;12.15;;;10.88;;
21754;SDS011;11039;50.028;19.938;2022-08-19T11:00:25;11.25;;;10.15;;
21754;SDS011;11039;50.028;19.938;2022-08-19T11:02:51;13.98;;;10.77;;
21754;SDS011;11039;50.028;19.938;2022-08-19T11:05:18;11.27;;;9.93;;
21754;SDS011;11039;50.028;19.938;2022-08-19T11:07:44;12.13;;;10.27;;
21754;SDS011;11039;50.028;19.938;2022-08-19T11:10:11;11.68;;;10.48;;
21754;SDS011;11039;50.028;19.938;2022-08-19T11:12:38;10.93;;;9.75;;
21754;SDS011;11039;50.028;19.938;2022-08-19T11:15:08;11.95;;;10.75;;
21754;SDS011;11039;50.028;19.938;2022-08-19T11:17:36;11.73;;;10.52;;
21754;SDS011;11039;50.028;19.938;2022-08-19T11:20:05;11.60;;;10.40;;
21754;SDS011;11039;50.028;19.938;2022-08-19T11:22:32;12.23;;;10.93;;
21754;SDS011;11039;50.028;19.938;2022-08-19T11:24:58;13.43;;;9.95;;
21754;SDS011;11039;50.028;19.938;2022-08-19T11:27:24;11.40;;;10.20;;
21754;SDS011;11039;50.028;19.938;2022-08-19T11:29:50;11.10;;;10.00;;
21754;SDS011;11039;50.028;19.938;2022-08-19T11:32:18;10.75;;;9.65;;
21754;SDS011;11039;50.028;19.938;2022-08-19T11:34:44;12.52;;;10.57;;
21754;SDS011;11039;50.028;19.938;2022-08-19T11:37:10;11.65;;;10.07;;
21754;SDS011;11039;50.028;19.938;2022-08-19T11:39:36;11.02;;;9.48;;
21754;SDS011;11039;50.028;19.938;2022-08-19T11:42:03;11.18;;;9.93;;
21754;SDS011;11039;50.028;19.938;2022-08-19T11:44:49;11.05;;;9.95;;
21754;SDS011;11039;50.028;19.938;2022-08-19T11:47:16;11.00;;;9.70;;
21754;SDS011;11039;50.028;19.938;2022-08-19T11:49:42;10.50;;;9.50;;
21754;SDS011;11039;50.028;19.938;2022-08-19T11:52:08;11.48;;;10.18;;
21754;SDS011;11039;50.028;19.938;2022-08-19T11:54:34;12.48;;;10.48;;
21754;SDS011;11039;50.028;19.938;2022-08-19T11:57:01;13.00;;;10.73;;
21754;SDS011;11039;50.028;19.938;2022-08-19T11:59:27;10.35;;;9.35;;
21754;SDS011;11039;50.028;19.938;2022-08-19T12:01:54;11.40;;;10.30;;
21754;SDS011;11039;50.028;19.938;2022-08-19T12:04:20;10.80;;;9.73;;
21754;SDS011;11039;50.028;19.938;2022-08-19T12:06:46;10.82;;;9.77;;
21754;SDS011;11039;50.028;19.938;2022-08-19T12:09:13;11.65;;;10.45;;
21754;SDS011;11039;50.028;19.938;2022-08-19T12:11:40;11.02;;;9.90;;
21754;SDS011;11039;50.028;19.938;2022-08-19T12:14:08;11.23;;;10.02;;
21754;SDS011;11039;50.028;19.938;2022-08-19T12:16:34;11.80;;;10.60;;
21754;SDS011;11039;50.028;19.938;2022-08-19T12:19:01;11.45;;;10.35;;
21754;SDS011;11039;50.028;19.938;2022-08-19T12:21:29;11.35;;;10.25;;
21754;SDS011;11039;50.028;19.938;2022-08-19T12:23:57;10.77;;;9.73;;
21754;SDS011;11039;50.028;19.938;2022-08-19T12:26:23;10.27;;;9.38;;
21754;SDS011;11039;50.028;19.938;2022-08-19T12:28:50;11.82;;;10.63;;
21754;SDS011;11039;50.028;19.938;2022-08-19T12:31:16;11.50;;;10.30;;
21754;SDS011;11039;50.028;19.938;2022-08-19T12:33:42;10.20;;;9.20;;
21754;SDS011;11039;50.028;19.938;2022-08-19T12:36:10;11.70;;;9.85;;
21754;SDS011;11039;50.028;19.938;2022-08-19T12:38:36;11.50;;;10.40;;
21754;SDS011;11039;50.028;19.938;2022-08-19T12:41:03;11.40;;;10.30;;
21754;SDS011;11039;50.028;19.938;2022-08-19T12:43:32;11.05;;;10.00;;
21754;SDS011;11039;50.028;19.938;2022-08-19T12:45:58;10.90;;;9.80;;
21754;SDS011;11039;50.028;19.938;2022-08-19T12:48:24;10.95;;;9.95;;
21754;SDS011;11039;50.028;19.938;2022-08-19T12:50:50;11.23;;;10.13;;
21754;SDS011;11039;50.028;19.938;2022-08-19T12:53:16;11.48;;;10.32;;
21754;SDS011;11039;50.028;19.938;2022-08-19T12:55:42;11.32;;;10.13;;
21754;SDS011;11039;50.028;19.938;2022-08-19T12:58:09;11.90;;;10.50;;
21754;SDS011;11039;50.028;19.938;2022-08-19T13:00:35;11.43;;;10.15;;
21754;SDS011;11039;50.028;19.938;2022-08-19T13:03:01;10.43;;;9.45;;
21754;SDS011;11039;50.028;19.938;2022-08-19T13:05:28;11.38;;;10.27;;
21754;SDS011;11039;50.028;19.938;2022-08-19T13:07:55;10.25;;;9.25;;
21754;SDS011;11039;50.028;19.938;2022-08-19T13:10:21;11.52;;;10.38;;
21754;SDS011;11039;50.028;19.938;2022-08-19T13:12:48;11.77;;;10.68;;
21754;SDS011;11039;50.028;19.938;2022-08-19T13:15:15;11.00;;;9.90;;
21754;SDS011;11039;50.028;19.938;2022-08-19T13:17:44;11.32;;;10.25;;
21754;SDS011;11039;50.028;19.938;2022-08-19T13:20:14;10.57;;;9.57;;
21754;SDS011;11039;50.028;19.938;2022-08-19T13:22:41;11.02;;;9.93;;
21754;SDS011;11039;50.028;19.938;2022-08-19T13:25:07;11.52;;;10.10;;
21754;SDS011;11039;50.028;19.938;2022-08-19T13:27:34;11.10;;;10.00;;
21754;SDS011;11039;50.028;19.938;2022-08-19T13:30:00;11.00;;;9.95;;
21754;SDS011;11039;50.028;19.938;2022-08-19T13:32:45;11.52;;;9.95;;
21754;SDS011;11039;50.028;19.938;2022-08-19T13:35:29;10.30;;;9.38;;
21754;SDS011;11039;50.028;19.938;2022-08-19T13:37:55;11.07;;;10.05;;
21754;SDS011;11039;50.028;19.938;2022-08-19T13:40:22;10.73;;;9.70;;
21754;SDS011;11039;50.028;19.938;2022-08-19T13:42:49;10.43;;;9.48;;
21754;SDS011;11039;50.028;19.938;2022-08-19T13:45:17;10.30;;;9.20;;
21754;SDS011;11039;50.028;19.938;2022-08-19T13:47:47;10.65;;;9.65;;
21754;SDS011;11039;50.028;19.938;2022-08-19T13:50:15;9.60;;;8.60;;
21754;SDS011;11039;50.028;19.938;2022-08-19T13:52:42;9.63;;;8.73;;
21754;SDS011;11039;50.028;19.938;2022-08-19T13:55:08;10.63;;;9.55;;
21754;SDS011;11039;50.028;19.938;2022-08-19T13:57:34;10.25;;;9.07;;
21754;SDS011;11039;50.028;19.938;2022-08-19T14:00:04;12.70;;;9.10;;
21754;SDS011;11039;50.028;19.938;2022-08-19T14:02:30;13.90;;;9.30;;
21754;SDS011;11039;50.028;19.938;2022-08-19T14:04:56;9.55;;;8.50;;
21754;SDS011;11039;50.028;19.938;2022-08-19T14:07:23;9.05;;;8.25;;
21754;SDS011;11039;50.028;19.938;2022-08-19T14:09:50;10.73;;;8.85;;
21754;SDS011;11039;50.028;19.938;2022-08-19T14:12:19;8.80;;;7.90;;
21754;SDS011;11039;50.028;19.938;2022-08-19T14:14:45;9.65;;;8.60;;
21754;SDS011;11039;50.028;19.938;2022-08-19T14:17:12;9.98;;;8.50;;
21754;SDS011;11039;50.028;19.938;2022-08-19T14:19:38;9.68;;;8.77;;
21754;SDS011;11039;50.028;19.938;2022-08-19T14:22:04;9.57;;;8.48;;
21754;SDS011;11039;50.028;19.938;2022-08-19T14:24:30;9.73;;;8.73;;
21754;SDS011;11039;50.028;19.938;2022-08-19T14:26:57;9.77;;;8.88;;